Time;durP1;ratioP1;P1;durP2;ratioP2;P2;SDS_P1;SDS_P2;PMS_P1;PMS_P2;Temp;Humidity;BMP_temperature;BMP_pressure;BME280_temperature;BME280_humidity;BME280_pressure;Samples;Min_cycle;Max_cycle;Signal;HPM_P1;HPM_P2
2022/05/13 00:01:49;;;;;;;;;0.67;0.67;;;;;18.15;40.38;101390.16;5081037;27;45561;-66
2022/05/13 00:04:14;;;;;;;;;2.67;0.67;;;;;18.09;39.97;101390.50;5089827;27;45760;-66
2022/05/13 00:06:39;;;;;;;;;2.00;0.67;;;;;18.14;39.98;101400.91;5090820;27;46141;-68
2022/05/13 00:09:05;;;;;;;;;0.00;0.00;;;;;18.06;39.81;101398.66;5092342;27;45511;-68
2022/05/13 00:11:30;;;;;;;;;1.33;0.33;;;;;18.06;39.65;101398.66;5088151;27;45448;-68
2022/05/13 00:13:56;;;;;;;;;0.33;0.33;;;;;18.08;39.41;101399.41;5073875;27;45428;-68
2022/05/13 00:16:22;;;;;;;;;0.00;0.00;;;;;18.07;39.31;101397.69;5074381;27;46137;-68
2022/05/13 00:18:47;;;;;;;;;2.00;2.00;;;;;18.13;39.26;101391.16;5075359;27;45470;-66
2022/05/13 00:21:12;;;;;;;;;2.00;0.67;;;;;18.16;38.94;101394.56;5076261;27;45562;-69
2022/05/13 00:23:38;;;;;;;;;0.67;0.67;;;;;18.19;38.80;101398.81;5074439;27;45595;-67
2022/05/13 00:26:03;;;;;;;;;0.00;0.00;;;;;18.09;38.65;101398.47;5085343;27;45428;-68
2022/05/13 00:28:29;;;;;;;;;0.33;0.33;;;;;18.04;38.36;101397.84;5077631;27;45571;-68
2022/05/13 00:30:55;;;;;;;;;0.67;0.67;;;;;17.89;38.25;101394.19;5089908;27;45502;-68
2022/05/13 00:33:21;;;;;;;;;0.67;0.67;;;;;17.80;38.36;101389.38;5078353;27;45608;-68
2022/05/13 00:35:48;;;;;;;;;0.67;0.67;;;;;17.81;38.39;101397.31;5083410;27;46033;-68
2022/05/13 00:38:13;;;;;;;;;0.67;0.67;;;;;17.75;38.31;101392.25;5080357;27;45495;-68
2022/05/13 00:40:40;;;;;;;;;0.00;0.00;;;;;17.78;38.47;101392.06;5090297;27;45397;-67
2022/05/13 00:43:08;;;;;;;;;0.00;0.00;;;;;17.85;37.88;101388.19;5074546;27;45654;-67
2022/05/13 00:45:34;;;;;;;;;0.33;0.00;;;;;17.89;38.38;101388.88;5074714;27;45579;-66
2022/05/13 00:48:00;;;;;;;;;0.33;0.33;;;;;17.85;38.40;101382.03;5085809;27;45462;-66
2022/05/13 00:50:32;;;;;;;;;0.33;0.33;;;;;17.85;38.07;101380.22;5079466;27;45542;-67
2022/05/13 00:52:58;;;;;;;;;0.00;0.00;;;;;17.78;37.97;101380.59;5073679;27;45584;-68
2022/05/13 00:55:29;;;;;;;;;0.67;0.00;;;;;17.72;38.14;101388.91;5089191;27;45576;-67
2022/05/13 00:57:56;;;;;;;;;4.00;1.00;;;;;17.67;38.18;101387.31;5084343;27;45519;-68
2022/05/13 01:00:21;;;;;;;;;0.00;0.00;;;;;17.57;38.36;101388.78;5081871;27;45543;-69
2022/05/13 01:02:48;;;;;;;;;1.33;1.33;;;;;17.58;38.65;101395.78;5077673;27;45568;-68
2022/05/13 01:05:15;;;;;;;;;0.67;0.67;;;;;17.58;38.40;101398.47;5074643;27;45507;-67
2022/05/13 01:07:41;;;;;;;;;0.67;0.67;;;;;17.58;38.48;101398.47;5088637;27;45544;-66
2022/05/13 01:10:11;;;;;;;;;0.00;0.00;;;;;17.54;38.40;101396.88;5075035;27;45608;-66
2022/05/13 01:12:41;;;;;;;;;0.00;0.00;;;;;17.59;38.08;101394.84;5078470;27;45752;-67
2022/05/13 01:15:10;;;;;;;;;1.00;1.00;;;;;17.60;38.50;101401.06;5073550;27;46248;-68
2022/05/13 01:20:25;;;;;;;;;0.67;0.67;;;;;17.57;38.05;101399.41;5088173;27;45602;-68
2022/05/13 01:22:55;;;;;;;;;1.33;0.33;;;;;17.56;38.21;101400.31;5081776;27;45600;-69
2022/05/13 01:25:24;;;;;;;;;0.00;0.00;;;;;17.54;38.68;101402.19;5074046;27;45840;-68
2022/05/13 01:27:51;;;;;;;;;0.00;0.00;;;;;17.53;38.34;101407.63;5084398;27;45814;-68
2022/05/13 01:30:27;;;;;;;;;0.00;0.00;;;;;17.50;38.79;101403.31;5076404;27;45631;-68
2022/05/13 01:32:53;;;;;;;;;1.67;1.00;;;;;17.44;39.15;101399.16;5083861;27;45566;-65
2022/05/13 01:35:19;;;;;;;;;1.67;0.33;;;;;17.39;39.06;101411.00;5078905;27;47128;-66
2022/05/13 01:37:44;;;;;;;;;2.00;0.33;;;;;17.27;40.10;101408.94;5073946;27;45473;-66
2022/05/13 01:40:10;;;;;;;;;3.67;0.67;;;;;17.22;40.28;101411.81;5096444;27;45425;-66
2022/05/13 01:42:36;;;;;;;;;1.33;1.33;;;;;17.24;40.49;101415.25;5082225;27;45542;-65
2022/05/13 01:45:02;;;;;;;;;0.00;0.00;;;;;17.16;40.34;101417.44;5092432;27;47242;-67
2022/05/13 01:47:28;;;;;;;;;1.00;0.00;;;;;17.15;40.02;101407.75;5078785;27;45609;-69
2022/05/13 01:49:55;;;;;;;;;1.00;1.00;;;;;17.26;40.39;101409.88;5092923;27;45476;-69
2022/05/13 01:52:21;;;;;;;;;0.33;0.00;;;;;17.28;40.76;101400.91;5087519;27;45542;-66
2022/05/13 01:54:46;;;;;;;;;1.33;0.67;;;;;17.29;40.58;101396.44;5084596;27;45453;-67
2022/05/13 01:57:11;;;;;;;;;2.00;1.00;;;;;17.38;40.39;101401.25;5093858;27;45483;-67
2022/05/13 01:59:37;;;;;;;;;0.00;0.00;;;;;17.39;40.56;101403.88;5085265;27;45431;-66
2022/05/13 02:02:02;;;;;;;;;1.33;0.67;;;;;17.40;40.75;101407.38;5095700;27;45511;-64
2022/05/13 02:04:28;;;;;;;;;1.00;1.00;;;;;17.39;41.39;101406.53;5083502;27;45561;-68
2022/05/13 02:06:53;;;;;;;;;0.67;0.67;;;;;17.32;40.99;101396.28;5089743;27;45605;-69
2022/05/13 02:09:18;;;;;;;;;2.00;1.00;;;;;17.32;41.01;101390.94;5079113;27;45599;-67
2022/05/13 02:11:45;;;;;;;;;1.00;1.00;;;;;17.36;41.35;101400.50;5089695;27;45447;-66
2022/05/13 02:14:13;;;;;;;;;1.00;1.00;;;;;17.32;41.90;101396.28;5084490;27;46281;-66
2022/05/13 02:16:38;;;;;;;;;3.67;2.33;;;;;17.27;42.48;101399.16;5090407;27;45598;-66
2022/05/13 02:19:03;;;;;;;;;1.67;1.67;;;;;17.30;41.80;101399.03;5097437;27;45487;-68
2022/05/13 02:21:29;;;;;;;;;0.67;0.67;;;;;17.40;41.53;101400.25;5093535;27;45458;-65
2022/05/13 02:23:54;;;;;;;;;2.33;1.33;;;;;17.42;41.59;101401.03;5075938;27;45456;-66
2022/05/13 02:26:19;;;;;;;;;2.00;2.00;;;;;17.44;42.19;101404.50;5075872;27;45518;-68
2022/05/13 02:28:45;;;;;;;;;2.00;1.00;;;;;17.39;42.13;101403.88;5076127;27;45529;-68
2022/05/13 02:31:12;;;;;;;;;4.00;2.33;;;;;17.44;42.38;101400.97;5078429;27;45394;-67
2022/05/13 02:33:38;;;;;;;;;2.00;1.67;;;;;17.40;42.51;101407.38;5093135;27;46259;-65
2022/05/13 02:36:05;;;;;;;;;0.67;0.67;;;;;17.42;42.53;101410.81;5075766;27;45461;-67
2022/05/13 02:38:31;;;;;;;;;1.00;1.00;;;;;17.34;42.75;101415.66;5080938;27;45515;-67
2022/05/13 02:41:13;;;;;;;;;1.67;1.67;;;;;17.26;42.83;101408.06;5096109;27;45630;-66
2022/05/13 02:43:53;;;;;;;;;1.00;1.00;;;;;17.13;42.99;101409.63;5095709;27;45443;-66
2022/05/13 02:46:26;;;;;;;;;3.67;2.00;;;;;17.15;42.64;101415.72;5095453;27;45916;-65
2022/05/13 02:48:52;;;;;;;;;1.00;1.00;;;;;17.10;43.47;101407.13;5095480;27;45567;-65
2022/05/13 02:51:19;;;;;;;;;2.00;2.00;;;;;17.21;42.98;101407.44;5092108;27;45506;-66
2022/05/13 02:53:45;;;;;;;;;2.00;1.67;;;;;17.21;42.65;101413.63;5075415;28;46232;-65
2022/05/13 02:56:10;;;;;;;;;1.67;1.67;;;;;17.14;42.71;101416.66;5075140;27;45535;-69
2022/05/13 02:58:37;;;;;;;;;1.67;1.67;;;;;17.14;43.12;101409.56;5075316;28;45922;-67
2022/05/13 03:01:04;;;;;;;;;2.00;1.00;;;;;17.19;42.65;101410.19;5075558;27;45462;-65
2022/05/13 03:03:30;;;;;;;;;1.33;1.33;;;;;17.21;42.49;101412.75;5077120;27;46171;-65
2022/05/13 03:05:56;;;;;;;;;0.67;0.67;;;;;17.18;42.87;101415.56;5075216;27;45508;-68
2022/05/13 03:08:21;;;;;;;;;2.00;1.67;;;;;17.07;43.57;101404.63;5075279;28;45372;-67
2022/05/13 03:10:48;;;;;;;;;0.67;0.67;;;;;16.97;43.83;101397.09;5083448;27;45512;-67
2022/05/13 03:13:18;;;;;;;;;4.33;2.67;;;;;16.97;43.90;101404.22;5095118;27;45494;-66
2022/05/13 03:15:43;;;;;;;;;2.67;1.67;;;;;17.01;43.62;101408.44;5095557;27;45409;-67
2022/05/13 03:18:09;;;;;;;;;2.67;2.67;;;;;17.05;43.93;101407.34;5094741;27;45826;-67
2022/05/13 03:20:36;;;;;;;;;3.00;2.33;;;;;16.98;43.73;101401.50;5090774;27;45603;-68
2022/05/13 03:23:02;;;;;;;;;1.67;1.67;;;;;16.98;43.34;101406.81;5088269;27;46003;-67
2022/05/13 03:25:28;;;;;;;;;2.00;0.67;;;;;16.95;43.52;101406.97;5087723;27;45498;-64
2022/05/13 03:27:54;;;;;;;;;2.67;1.67;;;;;16.93;43.56;101402.66;5091609;27;45522;-67
2022/05/13 03:30:23;;;;;;;;;2.33;2.00;;;;;16.90;43.85;101413.41;5090361;27;45595;-66
2022/05/13 03:32:49;;;;;;;;;2.33;2.33;;;;;16.79;44.37;101405.97;5077466;27;46109;-69
2022/05/13 03:35:16;;;;;;;;;2.00;2.00;;;;;16.75;44.26;101407.88;5086713;27;46014;-68
2022/05/13 03:37:43;;;;;;;;;2.00;2.00;;;;;16.73;44.42;101406.22;5090066;27;45481;-65
2022/05/13 03:40:09;;;;;;;;;3.00;2.00;;;;;16.71;44.55;101408.97;5092857;27;45565;-68
2022/05/13 03:42:38;;;;;;;;;7.33;5.67;;;;;16.76;44.63;101406.06;5089715;27;46260;-69
2022/05/13 03:45:08;;;;;;;;;2.67;2.67;;;;;16.69;45.05;101413.50;5090929;27;45491;-65
2022/05/13 03:47:34;;;;;;;;;3.67;2.67;;;;;16.76;44.81;101412.28;5084578;27;45491;-65
2022/05/13 03:49:59;;;;;;;;;3.67;3.67;;;;;16.74;45.22;101415.94;5082353;27;45587;-66
2022/05/13 03:52:25;;;;;;;;;3.67;2.67;;;;;16.81;44.63;101416.53;5093851;27;46173;-66
2022/05/13 03:54:51;;;;;;;;;3.50;3.00;;;;;16.77;45.21;101415.81;5094354;27;45652;-66
2022/05/13 03:57:16;;;;;;;;;0.00;0.00;;;;;16.76;45.61;101422.91;5077394;27;46011;-65
2022/05/13 03:59:41;;;;;;;;;2.67;1.33;;;;;16.69;45.49;101420.59;5093116;27;45527;-67
2022/05/13 04:02:07;;;;;;;;;1.33;1.33;;;;;16.67;45.37;101418.00;5083486;27;46345;-69
2022/05/13 04:08:56;;;;;;;;;3.00;3.00;;;;;16.66;45.76;101416.31;5073122;27;46436;-64
2022/05/13 04:10:07;;;;;;;;;3.00;3.00;;;;;16.57;46.51;101425.53;5083547;27;45524;-67
2022/05/13 04:18:00;;;;;;;;;4.00;2.33;;;;;16.71;46.03;101424.91;5092324;27;45531;-67
2022/05/13 04:20:26;;;;;;;;;1.33;1.33;;;;;16.70;45.20;101424.97;5092547;27;45678;-65
2022/05/13 04:22:51;;;;;;;;;4.00;4.00;;;;;16.71;46.19;101421.38;5091715;27;46132;-68
2022/05/13 04:25:17;;;;;;;;;3.67;3.67;;;;;16.65;45.98;101427.84;5075770;27;45432;-63
2022/05/13 04:27:43;;;;;;;;;2.00;2.00;;;;;16.56;46.86;101423.84;5076473;27;46318;-67
2022/05/13 04:30:09;;;;;;;;;2.67;1.67;;;;;16.62;46.49;101427.13;5085393;27;45948;-65
2022/05/13 04:32:34;;;;;;;;;4.00;4.00;;;;;16.67;46.07;101425.13;5087939;27;46025;-64
2022/05/13 04:35:00;;;;;;;;;3.00;2.00;;;;;16.70;45.36;101433.78;5094124;27;45492;-64
2022/05/13 04:37:25;;;;;;;;;3.67;2.00;;;;;16.67;45.44;101433.94;5091767;27;46121;-63
2022/05/13 04:39:53;;;;;;;;;4.33;3.00;;;;;16.69;45.71;101437.41;5080584;27;45522;-63
2022/05/13 04:45:07;;;;;;;;;3.00;2.67;;;;;16.68;45.03;101434.81;5074094;28;45457;-64
2022/05/13 04:50:17;;;;;;;;;1.67;1.67;;;;;16.76;45.07;101436.19;5089514;27;45575;-65
2022/05/13 04:52:42;;;;;;;;;3.67;2.33;;;;;16.78;45.59;101436.97;5093958;27;45512;-65
2022/05/13 04:55:09;;;;;;;;;2.33;2.00;;;;;16.76;45.65;101443.25;5090547;27;45460;-64
2022/05/13 04:57:34;;;;;;;;;4.00;4.00;;;;;16.72;45.09;101439.06;5089438;27;45610;-64
2022/05/13 05:00:00;;;;;;;;;2.33;2.33;;;;;16.68;45.64;101448.09;5081036;27;45696;-64
2022/05/13 05:02:25;;;;;;;;;5.00;3.00;;;;;16.67;45.64;101444.56;5073385;27;47098;-64
2022/05/13 05:04:51;;;;;;;;;2.67;2.67;;;;;16.68;45.99;101446.28;5092626;27;45455;-64
2022/05/13 05:07:16;;;;;;;;;2.67;2.67;;;;;16.65;46.59;101449.09;5094010;27;45849;-65
2022/05/13 05:09:41;;;;;;;;;2.33;2.33;;;;;16.55;46.69;101448.69;5093928;27;45459;-64
2022/05/13 05:12:09;;;;;;;;;2.00;2.00;;;;;16.49;46.55;101456.91;5093557;27;46863;-64
2022/05/13 05:14:34;;;;;;;;;2.00;2.00;;;;;16.47;46.73;101468.53;5097079;27;45533;-65
2022/05/13 05:17:00;;;;;;;;;4.33;2.33;;;;;16.47;46.47;101458.78;5097525;27;45476;-64
2022/05/13 05:19:25;;;;;;;;;3.67;3.33;;;;;16.52;46.67;101456.78;5097073;27;45593;-64
2022/05/13 05:21:51;;;;;;;;;3.00;3.00;;;;;16.51;47.36;101457.69;5097126;27;45461;-64
2022/05/13 05:24:16;;;;;;;;;3.33;3.00;;;;;16.48;47.37;101471.13;5096982;27;45589;-65
2022/05/13 05:26:41;;;;;;;;;3.33;3.33;;;;;16.51;47.32;101481.59;5097196;27;45501;-65
2022/05/13 05:29:07;;;;;;;;;3.67;3.33;;;;;16.47;47.33;101481.81;5097103;27;45567;-65
2022/05/13 05:31:32;;;;;;;;;3.00;3.00;;;;;16.50;47.16;101482.56;5097057;27;45675;-65
2022/05/13 05:33:57;;;;;;;;;2.67;2.67;;;;;16.41;48.56;101482.94;5094754;27;45463;-64
2022/05/13 05:36:23;;;;;;;;;2.00;2.00;;;;;16.38;47.77;101479.59;5096879;27;49845;-64
2022/05/13 05:38:48;;;;;;;;;3.00;3.00;;;;;16.42;48.03;101483.84;5096939;27;45429;-64
2022/05/13 05:41:13;;;;;;;;;3.67;3.67;;;;;16.27;48.66;101485.38;5096877;27;45499;-65
2022/05/13 05:43:39;;;;;;;;;3.33;3.33;;;;;16.26;48.21;101488.97;5096952;27;45412;-64
2022/05/13 05:46:04;;;;;;;;;3.33;3.33;;;;;16.24;49.03;101498.78;5096821;27;45494;-63
2022/05/13 05:48:30;;;;;;;;;6.00;5.00;;;;;16.24;48.18;101488.19;5096738;27;45689;-64
2022/05/13 05:50:58;;;;;;;;;4.33;2.33;;;;;16.20;49.14;101486.56;5096477;27;45766;-64
2022/05/13 05:58:55;;;;;;;;;2.67;2.67;;;;;16.38;48.51;101503.47;5096784;27;45516;-64
2022/05/13 06:01:20;;;;;;;;;3.00;3.00;;;;;16.48;48.72;101502.13;5095960;27;45595;-64
2022/05/13 06:03:45;;;;;;;;;4.00;4.00;;;;;16.51;48.71;101507.31;5096587;27;45476;-65
2022/05/13 06:06:12;;;;;;;;;4.00;4.00;;;;;16.53;48.03;101505.44;5096929;27;45565;-65
2022/05/13 06:08:39;;;;;;;;;3.00;3.00;;;;;16.61;48.39;101502.44;5096551;27;45496;-65
2022/05/13 06:11:04;;;;;;;;;1.67;1.67;;;;;16.62;47.49;101509.47;5095951;27;46076;-64
2022/05/13 06:13:29;;;;;;;;;3.33;2.00;;;;;16.64;48.81;101519.09;5096224;27;45553;-64
2022/05/13 06:15:55;;;;;;;;;2.67;2.67;;;;;16.66;48.80;101521.69;5096529;27;45456;-65
2022/05/13 06:18:21;;;;;;;;;2.67;2.67;;;;;16.71;48.38;101517.00;5096394;27;45631;-64
2022/05/13 06:20:46;;;;;;;;;6.00;5.00;;;;;16.71;48.13;101515.22;5096036;27;46120;-65
2022/05/13 06:23:12;;;;;;;;;4.00;4.00;;;;;16.67;48.05;101521.59;5096285;27;45607;-64
2022/05/13 06:25:39;;;;;;;;;6.33;3.00;;;;;16.67;48.45;101520.75;5095851;27;45497;-64
2022/05/13 06:28:05;;;;;;;;;4.33;4.33;;;;;16.71;48.03;101527.63;5096376;27;45422;-64
2022/05/13 06:30:33;;;;;;;;;6.67;6.67;;;;;16.81;48.05;101536.94;5095942;27;45593;-64
2022/05/13 06:32:59;;;;;;;;;5.67;4.67;;;;;16.83;48.60;101535.06;5095918;27;45554;-64
2022/05/13 06:35:27;;;;;;;;;3.33;2.67;;;;;16.82;48.27;101530.72;5096150;27;45577;-65
2022/05/13 06:37:52;;;;;;;;;5.33;5.33;;;;;16.81;48.06;101525.44;5095759;27;45708;-64
2022/05/13 06:40:18;;;;;;;;;3.00;3.00;;;;;16.94;47.73;101531.91;5095719;27;45984;-64
2022/05/13 06:42:44;;;;;;;;;4.00;4.00;;;;;16.93;47.56;101536.38;5095657;27;45436;-64
2022/05/13 06:45:10;;;;;;;;;4.00;2.67;;;;;16.87;47.75;101530.47;5095471;27;45627;-64
2022/05/13 06:47:36;;;;;;;;;5.67;5.00;;;;;16.90;48.05;101527.66;5096021;27;45492;-64
2022/05/13 06:50:05;;;;;;;;;4.67;4.67;;;;;16.95;47.99;101538.94;5095657;27;46357;-64
2022/05/13 06:52:31;;;;;;;;;2.00;2.00;;;;;16.90;46.45;101540.94;5095509;27;45480;-64
2022/05/13 06:54:56;;;;;;;;;3.00;1.00;;;;;16.84;46.17;101538.59;5095640;27;45582;-64
2022/05/13 06:57:22;;;;;;;;;2.00;2.00;;;;;16.82;45.86;101535.13;5095693;27;45502;-64
2022/05/13 06:59:47;;;;;;;;;1.33;1.33;;;;;16.94;45.69;101545.19;5095217;27;46290;-64
2022/05/13 07:02:17;;;;;;;;;2.33;2.33;;;;;16.94;45.44;101555.84;5095525;27;45503;-64
2022/05/13 07:04:42;;;;;;;;;4.33;1.33;;;;;16.92;45.36;101563.00;5095750;27;45455;-64
2022/05/13 07:07:08;;;;;;;;;3.33;3.00;;;;;16.92;44.85;101550.56;5095625;27;45443;-64
2022/05/13 07:09:34;;;;;;;;;3.67;3.67;;;;;16.95;45.49;101555.78;5095204;27;45992;-64
2022/05/13 07:12:00;;;;;;;;;3.67;3.33;;;;;16.94;46.10;101554.03;5095467;27;46082;-64
2022/05/13 07:14:25;;;;;;;;;2.00;2.00;;;;;16.95;45.25;101545.16;5094270;27;46030;-64
2022/05/13 07:16:51;;;;;;;;;1.67;1.67;;;;;17.09;45.30;101554.25;5095477;27;45627;-65
2022/05/13 07:19:16;;;;;;;;;4.67;3.00;;;;;17.15;45.17;101551.31;5095013;27;47782;-65
2022/05/13 07:21:41;;;;;;;;;3.00;3.00;;;;;17.22;44.01;101548.28;5095237;27;45491;-64
2022/05/13 07:24:07;;;;;;;;;2.67;2.67;;;;;17.30;44.19;101555.91;5095240;27;45532;-65
2022/05/13 07:26:32;;;;;;;;;1.33;1.33;;;;;17.32;44.21;101546.03;5095057;27;45813;-65
2022/05/13 07:28:58;;;;;;;;;0.67;0.67;;;;;17.33;43.43;101560.19;5093696;27;47006;-65
2022/05/13 07:31:23;;;;;;;;;2.67;1.33;;;;;17.35;43.31;101547.69;5095104;27;45464;-65
2022/05/13 07:33:49;;;;;;;;;0.67;0.67;;;;;17.40;42.69;101556.28;5095194;27;45386;-65
2022/05/13 07:36:14;;;;;;;;;0.33;0.33;;;;;17.42;42.47;101547.31;5093476;27;45456;-64
2022/05/13 07:41:16;;;;;;;;;1.00;1.00;;;;;17.47;42.45;101555.06;5092695;27;45529;-64
2022/05/13 07:41:26;;;;;;;;;3.67;1.67;;;;;17.51;42.43;101555.78;5094703;27;45501;-64
2022/05/13 07:43:52;;;;;;;;;2.00;1.67;;;;;17.52;42.49;101557.50;5094833;27;45477;-64
2022/05/13 07:46:18;;;;;;;;;1.00;1.00;;;;;17.47;42.81;101560.38;5094940;27;45395;-64
2022/05/13 07:48:43;;;;;;;;;1.33;1.33;;;;;17.52;41.95;101561.03;5094687;27;46397;-64
2022/05/13 07:51:09;;;;;;;;;2.00;1.67;;;;;17.55;42.41;101562.69;5094652;27;45484;-64
2022/05/13 07:53:36;;;;;;;;;3.00;2.00;;;;;17.57;41.91;101564.31;5094713;27;45571;-64
2022/05/13 07:56:02;;;;;;;;;1.67;0.67;;;;;17.60;41.06;101558.84;5095007;27;45538;-64
2022/05/13 07:58:28;;;;;;;;;1.00;0.67;;;;;17.64;40.97;101563.06;5094695;27;45563;-65
2022/05/13 08:00:54;;;;;;;;;0.67;0.67;;;;;17.66;40.77;101557.69;5092699;27;45512;-64
2022/05/13 08:03:20;;;;;;;;;4.00;4.00;;;;;17.71;40.97;101560.97;5094405;27;45501;-64
2022/05/13 08:05:51;;;;;;;;;2.00;2.00;;;;;17.80;40.96;101562.34;5094433;27;45579;-65
2022/05/13 08:08:27;;;;;;;;;2.67;1.00;;;;;17.81;40.74;101556.97;5094144;27;45480;-65
2022/05/13 08:10:56;;;;;;;;;1.33;1.33;;;;;17.84;40.08;101555.94;5094229;27;45454;-64
2022/05/13 08:13:24;;;;;;;;;2.00;2.00;;;;;17.80;39.85;101563.19;5094148;27;45492;-64
2022/05/13 08:15:50;;;;;;;;;3.33;1.67;;;;;17.80;39.19;101549.03;5092898;27;45433;-64
2022/05/13 08:18:17;;;;;;;;;0.33;0.33;;;;;17.75;39.14;101554.53;5094016;27;45965;-64
2022/05/13 08:20:45;;;;;;;;;0.67;0.67;;;;;17.81;39.42;101556.97;5094407;27;45414;-65
2022/05/13 08:23:11;;;;;;;;;0.33;0.33;;;;;17.77;38.72;101565.97;5094332;27;45484;-64
2022/05/13 08:25:37;;;;;;;;;0.67;0.67;;;;;17.79;38.94;101563.28;5094310;27;45456;-64
2022/05/13 08:28:05;;;;;;;;;0.67;0.67;;;;;17.73;39.48;101553.78;5094015;27;45517;-66
2022/05/13 08:30:31;;;;;;;;;2.00;2.00;;;;;17.81;40.09;101556.06;5094070;27;45472;-64
2022/05/13 08:32:57;;;;;;;;;1.33;1.33;;;;;17.78;39.44;101562.38;5094251;27;46008;-64
2022/05/13 08:35:23;;;;;;;;;0.67;0.67;;;;;17.79;39.79;101560.63;5094230;27;45651;-66
2022/05/13 08:37:53;;;;;;;;;0.67;0.67;;;;;17.81;39.95;101550.75;5093788;27;46195;-64
2022/05/13 08:40:37;;;;;;;;;3.67;1.00;;;;;17.81;39.75;101562.28;5094014;27;45532;-65
2022/05/13 08:43:13;;;;;;;;;0.00;0.00;;;;;17.82;39.68;101569.31;5094076;27;45478;-65
2022/05/13 08:46:02;;;;;;;;;0.67;0.67;;;;;17.82;39.50;101566.66;5093935;27;45583;-64
2022/05/13 08:48:39;;;;;;;;;1.33;1.00;;;;;17.86;40.25;101568.19;5051040;27;45511;-63
2022/05/13 08:51:13;;;;;;;;;4.00;3.00;;;;;17.85;40.73;101569.16;5093956;27;45408;-64
2022/05/13 08:54:06;;;;;;;;;2.00;2.00;;;;;17.88;40.70;101563.66;5093878;27;45503;-64
2022/05/13 08:56:32;;;;;;;;;1.67;1.67;;;;;17.91;40.28;101561.81;5092221;27;45533;-64
2022/05/13 08:59:15;;;;;;;;;1.67;1.67;;;;;17.98;40.05;101565.88;5091880;27;46530;-64
2022/05/13 09:01:53;;;;;;;;;2.33;2.33;;;;;18.05;40.16;101556.63;5093363;27;45506;-64
2022/05/13 09:04:37;;;;;;;;;0.67;0.67;;;;;18.08;39.83;101549.38;5092460;27;45424;-65
2022/05/13 09:07:06;;;;;;;;;1.00;1.00;;;;;18.06;39.43;101556.56;5093908;27;45436;-64
2022/05/13 09:09:32;;;;;;;;;4.00;3.00;;;;;18.06;39.38;101563.69;5092937;27;45514;-64
2022/05/13 09:11:57;;;;;;;;;1.00;1.00;;;;;18.09;39.82;101568.84;5093329;27;45488;-64
2022/05/13 09:14:40;;;;;;;;;0.00;0.00;;;;;18.09;39.42;101560.88;5093432;27;45467;-63
2022/05/13 09:17:27;;;;;;;;;4.33;4.33;;;;;18.14;39.68;101566.81;5092079;27;45501;-65
2022/05/13 09:20:00;;;;;;;;;2.00;2.00;;;;;18.19;39.30;101555.91;5093367;27;45434;-65
2022/05/13 09:22:46;;;;;;;;;2.00;2.00;;;;;18.19;39.08;101562.13;5093289;27;45519;-65
2022/05/13 09:25:17;;;;;;;;;1.67;1.67;;;;;18.23;39.09;101562.81;5093416;27;45495;-64
2022/05/13 09:28:11;;;;;;;;;2.33;1.33;;;;;18.27;39.02;101564.38;5093470;27;45536;-65
2022/05/13 09:30:39;;;;;;;;;1.67;1.67;;;;;18.31;38.83;101563.28;5090091;27;45572;-65
2022/05/13 09:33:40;;;;;;;;;1.67;1.67;;;;;18.31;38.99;101561.47;5093334;27;45548;-65
2022/05/13 09:36:07;;;;;;;;;1.00;1.00;;;;;18.33;38.42;101561.41;5093497;27;45475;-64
2022/05/13 09:38:45;;;;;;;;;2.00;2.00;;;;;18.30;38.14;101558.91;5093610;27;45390;-65
2022/05/13 09:41:12;;;;;;;;;3.67;2.00;;;;;18.25;37.87;101551.13;5093437;27;45508;-65
2022/05/13 09:43:52;;;;;;;;;0.33;0.33;;;;;18.30;36.99;101553.56;5093424;27;45535;-64
2022/05/13 09:46:35;;;;;;;;;1.00;1.00;;;;;18.29;37.37;101568.66;5093427;27;45542;-64
2022/05/13 09:49:12;;;;;;;;;0.00;0.00;;;;;18.33;37.61;101566.72;5093160;27;45373;-65
2022/05/13 09:51:51;;;;;;;;;1.67;1.67;;;;;18.37;37.41;101570.06;5093151;27;46172;-65
2022/05/13 09:54:33;;;;;;;;;2.00;2.00;;;;;18.36;37.38;101568.38;5093189;27;45504;-65
2022/05/13 09:57:32;;;;;;;;;0.00;0.00;;;;;18.39;37.10;101560.22;5093530;27;45447;-64
2022/05/13 10:00:15;;;;;;;;;1.67;1.67;;;;;18.38;36.92;101558.50;5095099;27;45594;-64
2022/05/13 10:02:47;;;;;;;;;2.00;2.00;;;;;18.39;36.63;101550.41;5096766;27;45412;-64
2022/05/13 10:05:27;;;;;;;;;0.67;0.00;;;;;18.41;35.72;101553.00;5096816;27;45487;-65
2022/05/13 10:07:52;;;;;;;;;0.67;0.67;;;;;18.43;36.37;101543.09;5096620;27;45494;-64
2022/05/13 10:16:14;;;;;;;;;1.67;1.00;;;;;18.60;36.22;101524.44;5096148;27;45502;-64
2022/05/13 10:18:57;;;;;;;;;0.67;0.67;;;;;18.58;35.68;101536.13;5095939;27;45575;-65
2022/05/13 10:21:31;;;;;;;;;1.00;1.00;;;;;18.63;36.16;101539.41;5095832;27;45554;-64
2022/05/13 10:24:29;;;;;;;;;1.33;1.33;;;;;18.65;35.47;101542.84;5096024;27;46196;-64
2022/05/13 10:26:58;;;;;;;;;0.67;0.67;;;;;18.65;35.86;101533.03;5096248;27;45464;-64
2022/05/13 10:29:46;;;;;;;;;1.00;1.00;;;;;18.71;36.31;101532.69;5096182;27;45362;-67
2022/05/13 10:32:19;;;;;;;;;1.67;1.67;;;;;18.76;35.79;101535.16;5096004;27;45583;-64
2022/05/13 10:34:50;;;;;;;;;2.00;2.00;;;;;18.77;36.36;101521.72;5095881;27;46174;-64
2022/05/13 10:37:34;;;;;;;;;3.33;0.67;;;;;18.86;36.18;101532.81;5095836;27;45467;-64
2022/05/13 10:40:06;;;;;;;;;1.67;0.67;;;;;18.91;35.95;101534.31;5095536;27;45424;-66
2022/05/13 10:42:37;;;;;;;;;0.67;0.67;;;;;18.89;35.12;101536.19;5095638;27;45496;-65
2022/05/13 10:45:22;;;;;;;;;1.00;1.00;;;;;18.84;35.96;101526.75;5094450;27;45849;-64
2022/05/13 10:47:54;;;;;;;;;1.67;1.67;;;;;18.87;35.54;101522.09;5095105;27;45501;-64
2022/05/13 10:50:25;;;;;;;;;3.00;3.00;;;;;18.92;36.01;101519.19;5095422;27;45508;-64
2022/05/13 10:52:58;;;;;;;;;0.00;0.00;;;;;18.97;36.12;101517.13;5095540;27;45541;-64
2022/05/13 10:55:57;;;;;;;;;4.33;4.33;;;;;18.99;35.15;101509.88;5095292;27;45580;-64
2022/05/13 10:58:44;;;;;;;;;0.67;0.67;;;;;18.95;36.00;101513.66;5094978;27;45591;-64
2022/05/13 11:01:40;;;;;;;;;0.67;0.67;;;;;18.96;36.15;101510.06;5094889;27;45563;-64
2022/05/13 11:04:15;;;;;;;;;2.00;2.00;;;;;18.98;36.54;101506.34;5095719;27;45563;-64
2022/05/13 11:06:46;;;;;;;;;1.00;1.00;;;;;19.07;36.20;101504.97;5093754;27;47408;-64
2022/05/13 11:09:35;;;;;;;;;2.67;1.33;;;;;19.09;36.35;101499.56;5095266;27;45406;-65
2022/05/13 11:12:38;;;;;;;;;3.67;3.00;;;;;19.16;37.06;101504.47;5095587;27;45393;-64
2022/05/13 11:15:35;;;;;;;;;1.33;1.33;;;;;19.20;36.13;101507.81;5095280;27;45470;-65
2022/05/13 11:18:39;;;;;;;;;2.67;2.67;;;;;19.24;36.69;101497.84;5094692;27;46012;-65
2022/05/13 11:21:45;;;;;;;;;2.00;2.00;;;;;19.27;36.02;101495.00;5094811;27;45460;-65
2022/05/13 11:27:41;;;;;;;;;2.00;2.00;;;;;19.38;35.59;101495.22;5095277;27;45499;-66
2022/05/13 11:30:11;;;;;;;;;2.00;2.00;;;;;19.33;35.82;101489.28;5094821;27;46308;-65
2022/05/13 11:32:54;;;;;;;;;1.67;1.67;;;;;19.35;35.97;101495.41;5094842;27;45460;-65
2022/05/13 11:35:22;;;;;;;;;3.00;2.67;;;;;19.31;35.66;101483.19;5094817;27;45548;-65
2022/05/13 11:37:52;;;;;;;;;1.67;1.67;;;;;19.39;36.12;101488.94;5094411;27;45484;-64
2022/05/13 11:40:29;;;;;;;;;2.00;2.00;;;;;19.42;36.08;101496.75;5094386;27;46332;-66
2022/05/13 11:43:19;;;;;;;;;2.33;1.67;;;;;19.46;36.36;101492.13;5094689;27;45554;-65
2022/05/13 11:45:56;;;;;;;;;1.67;1.67;;;;;19.54;36.65;101495.19;5094801;27;45515;-65
2022/05/13 11:48:21;;;;;;;;;1.67;1.67;;;;;19.60;36.38;101485.00;5094743;27;45389;-65
2022/05/13 11:50:48;;;;;;;;;2.33;2.33;;;;;19.67;35.90;101487.38;5094448;27;45508;-64
2022/05/13 11:53:52;;;;;;;;;2.67;2.67;;;;;19.70;35.50;101487.19;5094412;27;45464;-65
2022/05/13 11:56:29;;;;;;;;;3.67;2.00;;;;;19.78;35.69;101482.25;5093120;27;45492;-65
2022/05/13 11:59:01;;;;;;;;;3.00;2.00;;;;;19.82;35.95;101484.63;5094827;27;45656;-65
2022/05/13 12:01:38;;;;;;;;;1.00;1.00;;;;;19.87;35.27;101481.69;5092221;27;47151;-65
2022/05/13 12:04:12;;;;;;;;;2.33;2.33;;;;;19.91;35.21;101480.56;5092973;27;45477;-65
2022/05/13 12:06:49;;;;;;;;;0.67;0.67;;;;;19.96;34.93;101486.47;5094667;27;45476;-65
2022/05/13 12:09:39;;;;;;;;;0.67;0.67;;;;;20.00;35.19;101474.66;5094509;27;45504;-65